createdAt,value
2022-09-21T00:00:28.136Z,98791.75
2022-09-21T00:02:58.477Z,98786.97
2022-09-21T00:05:27.828Z,98792.41
2022-09-21T00:08:09.034Z,98792.16
2022-09-21T00:10:38.227Z,98794.06
2022-09-21T00:13:08.953Z,98794.34
2022-09-21T00:15:41.836Z,98792.81
2022-09-21T00:18:11.959Z,98792.81
2022-09-21T00:20:43.998Z,98803.25
2022-09-21T00:23:14.560Z,98801.31
2022-09-21T00:25:43.790Z,98793.94
2022-09-21T00:28:13.249Z,98798.00
2022-09-21T00:30:43.415Z,98797.78
2022-09-21T00:33:12.586Z,98792.09
2022-09-21T00:35:41.728Z,98789.19
2022-09-21T00:38:10.816Z,98795.47
2022-09-21T00:40:41.495Z,98794.34
2022-09-21T00:43:16.058Z,98799.66
2022-09-21T00:45:48.365Z,98794.78
2022-09-21T00:48:18.178Z,98802.16
2022-09-21T00:50:54.651Z,98799.59
2022-09-21T00:53:24.094Z,98808.25
2022-09-21T00:55:58.124Z,98805.75
2022-09-21T00:58:32.691Z,98812.06
2022-09-21T01:01:02.802Z,98805.25
2022-09-21T01:03:33.439Z,98815.44
2022-09-21T01:06:03.156Z,98804.94
2022-09-21T01:08:34.507Z,98813.44
2022-09-21T01:11:26.833Z,98807.88
2022-09-21T01:14:19.451Z,98807.06
2022-09-21T01:17:02.603Z,98810.31
2022-09-21T01:20:09.004Z,98809.56
2022-09-21T01:22:55.609Z,98807.66
2022-09-21T01:25:36.424Z,98806.69
2022-09-21T01:28:23.595Z,98811.81
2022-09-21T01:30:55.609Z,98809.22
2022-09-21T01:33:30.325Z,98816.31
2022-09-21T01:36:07.712Z,98817.63
2022-09-21T01:38:40.092Z,98817.50
2022-09-21T01:41:13.496Z,98819.88
2022-09-21T01:43:49.773Z,98818.13
2022-09-21T01:46:23.432Z,98824.16
2022-09-21T01:48:58.598Z,98814.47
2022-09-21T01:51:34.376Z,98817.41
2022-09-21T01:54:10.825Z,98814.34
2022-09-21T01:56:46.782Z,98815.22
2022-09-21T01:59:22.090Z,98808.44
2022-09-21T02:01:57.690Z,98809.19
2022-09-21T02:04:27.495Z,98810.22
2022-09-21T02:06:57.478Z,98816.13
2022-09-21T02:09:37.883Z,98807.16
2022-09-21T02:12:07.400Z,98803.50
2022-09-21T02:14:39.605Z,98803.06
2022-09-21T02:17:26.521Z,98804.97
2022-09-21T02:20:08.800Z,98795.56
2022-09-21T02:22:50.034Z,98801.00
2022-09-21T02:25:29.945Z,98813.44
2022-09-21T02:28:08.154Z,98804.38
2022-09-21T02:30:39.223Z,98803.06
2022-09-21T02:33:14.070Z,98806.59
2022-09-21T02:35:51.100Z,98811.41
2022-09-21T02:38:30.735Z,98813.97
2022-09-21T02:41:11.127Z,98804.81
2022-09-21T02:43:46.836Z,98803.81
2022-09-21T02:46:24.681Z,98804.97
2022-09-21T02:49:00.613Z,98799.69
2022-09-21T02:51:33.781Z,98804.09
2022-09-21T02:54:08.119Z,98807.00
2022-09-21T02:56:38.476Z,98802.03
2022-09-21T02:59:08.403Z,98799.06
2022-09-21T03:01:40.357Z,98810.66
2022-09-21T03:04:11.316Z,98806.09
2022-09-21T03:06:41.548Z,98804.22
2022-09-21T03:09:10.988Z,98805.25
2022-09-21T03:11:42.521Z,98804.06
2022-09-21T03:14:11.890Z,98802.16
2022-09-21T03:16:41.090Z,98805.25
2022-09-21T03:19:12.091Z,98809.19
2022-09-21T03:21:44.454Z,98815.34
2022-09-21T03:24:13.952Z,98814.03
2022-09-21T03:26:43.477Z,98812.44
2022-09-21T03:29:12.962Z,98814.50
2022-09-21T03:31:42.063Z,98817.09
2022-09-21T03:34:12.547Z,98820.34
2022-09-21T03:36:42.727Z,98814.91
2022-09-21T03:39:11.823Z,98816.38
2022-09-21T03:41:41.404Z,98815.50
2022-09-21T03:44:10.764Z,98817.81
2022-09-21T03:46:40.017Z,98820.63
2022-09-21T03:49:09.194Z,98818.47
2022-09-21T03:51:40.666Z,98819.59
2022-09-21T03:54:09.844Z,98828.06
2022-09-21T03:56:39.579Z,98819.59
2022-09-21T03:59:13.756Z,98831.31
2022-09-21T04:01:43.989Z,98833.81
2022-09-21T04:04:13.602Z,98832.38
2022-09-21T04:06:46.245Z,98822.81
2022-09-21T04:09:15.793Z,98823.66
2022-09-21T04:11:46.736Z,98824.84
2022-09-21T04:14:16.399Z,98831.16
2022-09-21T04:16:46.687Z,98836.44
2022-09-21T04:19:16.693Z,98833.66
2022-09-21T04:21:47.233Z,98846.22
2022-09-21T04:24:16.859Z,98839.94
2022-09-21T04:26:46.495Z,98840.00
2022-09-21T04:29:16.495Z,98837.78
2022-09-21T04:31:45.593Z,98844.50
2022-09-21T04:34:15.375Z,98853.41
2022-09-21T04:36:44.513Z,98853.56
2022-09-21T04:39:14.915Z,98858.09
2022-09-21T04:41:44.046Z,98854.88
2022-09-21T04:44:13.183Z,98864.16
2022-09-21T04:46:42.513Z,98858.81
2022-09-21T04:49:11.809Z,98859.06
2022-09-21T04:51:41.068Z,98871.38
2022-09-21T04:54:10.881Z,98881.09
2022-09-21T04:56:41.593Z,98875.78
2022-09-21T04:59:10.820Z,98876.16
2022-09-21T05:01:39.882Z,98877.78
2022-09-21T05:04:09.030Z,98862.94
2022-09-21T05:06:38.169Z,98871.50
2022-09-21T05:09:24.848Z,98868.88
2022-09-21T05:11:55.360Z,98861.84
2022-09-21T05:14:24.467Z,98872.13
2022-09-21T05:16:53.536Z,98869.75
2022-09-21T05:19:22.939Z,98884.13
2022-09-21T05:21:52.046Z,98879.81
2022-09-21T05:24:21.152Z,98891.16
2022-09-21T05:26:50.246Z,98890.91
2022-09-21T05:29:21.609Z,98894.13
2022-09-21T05:31:57.094Z,98892.72
2022-09-21T05:34:42.550Z,98901.69
2022-09-21T05:37:25.947Z,98903.72
2022-09-21T05:39:55.857Z,98900.81
2022-09-21T05:42:25.831Z,98907.56
2022-09-21T05:44:57.333Z,98911.44
2022-09-21T05:47:37.840Z,98912.50
2022-09-21T05:50:24.459Z,98915.97
2022-09-21T05:53:05.813Z,98909.47
2022-09-21T05:55:48.396Z,98918.38
2022-09-21T05:58:27.671Z,98916.38
2022-09-21T06:01:16.585Z,98920.78
2022-09-21T06:03:48.722Z,98918.56
2022-09-21T06:06:21.835Z,98920.38
2022-09-21T06:08:51.203Z,98912.19
2022-09-21T06:11:20.668Z,98911.63
2022-09-21T06:13:49.761Z,98921.03
2022-09-21T06:16:20.356Z,98914.00
2022-09-21T06:18:49.512Z,98916.56
2022-09-21T06:21:18.523Z,98910.25
2022-09-21T06:23:47.584Z,98917.22
2022-09-21T06:26:17.739Z,98914.63
2022-09-21T06:28:46.806Z,98916.44
2022-09-21T06:31:15.966Z,98912.63
2022-09-21T06:33:48.556Z,98918.69
2022-09-21T06:36:18.532Z,98913.19
2022-09-21T06:38:47.662Z,98920.91
2022-09-21T06:41:21.214Z,98922.63
2022-09-21T06:43:50.629Z,98925.13
2022-09-21T06:46:19.803Z,98928.78
2022-09-21T06:48:50.290Z,98936.44
2022-09-21T06:51:21.008Z,98942.91
2022-09-21T06:53:50.033Z,98930.13
2022-09-21T06:56:19.122Z,98937.38
2022-09-21T06:58:50.738Z,98935.84
2022-09-21T07:01:20.982Z,98942.69
2022-09-21T07:03:53.224Z,98942.31
2022-09-21T07:06:22.594Z,98943.94
2022-09-21T07:11:44.063Z,98951.97
2022-09-21T07:14:14.199Z,98944.34
2022-09-21T07:16:46.128Z,98944.38
2022-09-21T07:19:16.793Z,98941.13
2022-09-21T07:21:45.899Z,98940.25
2022-09-21T07:24:15.696Z,98943.00
2022-09-21T07:26:44.800Z,98942.91
2022-09-21T07:29:14.172Z,98933.19
2022-09-21T07:31:45.504Z,98946.00
2022-09-21T07:34:16.033Z,98936.22
2022-09-21T07:36:45.278Z,98938.56
2022-09-21T07:39:14.408Z,98946.13
2022-09-21T07:41:43.489Z,98941.53
2022-09-21T07:44:12.532Z,98941.41
2022-09-21T07:46:50.072Z,98944.09
2022-09-21T07:49:20.720Z,98944.31
2022-09-21T07:51:50.144Z,98949.06
2022-09-21T07:54:19.263Z,98959.41
2022-09-21T07:57:08.617Z,98960.13
2022-09-21T07:59:36.691Z,98960.25
2022-09-21T08:02:05.911Z,98957.44
2022-09-21T08:04:36.552Z,98957.19
2022-09-21T08:07:06.045Z,98964.91
2022-09-21T08:09:35.336Z,98960.84
2022-09-21T08:12:04.666Z,98963.78
2022-09-21T08:14:34.778Z,98970.03
2022-09-21T08:17:04.090Z,98970.81
2022-09-21T08:19:33.250Z,98971.47
2022-09-21T08:22:09.438Z,98960.56
2022-09-21T08:24:39.071Z,98962.78
2022-09-21T08:27:08.591Z,98966.25
2022-09-21T08:29:37.785Z,98959.41
2022-09-21T08:32:07.621Z,98973.72
2022-09-21T08:34:36.737Z,98967.72
2022-09-21T08:37:07.359Z,98965.72
2022-09-21T08:39:37.766Z,98966.19
2022-09-21T08:42:25.880Z,98962.69
2022-09-21T08:44:58.296Z,98961.63
2022-09-21T08:47:43.571Z,98965.00
2022-09-21T08:50:32.073Z,98961.03
2022-09-21T08:53:08.672Z,98960.00
2022-09-21T08:55:37.928Z,98959.63
2022-09-21T08:58:21.541Z,98969.16
2022-09-21T09:01:02.482Z,98966.59
2022-09-21T09:04:24.476Z,98968.44
2022-09-21T09:07:09.309Z,98966.88
2022-09-21T09:10:02.049Z,98963.81
2022-09-21T09:12:51.110Z,98959.25
2022-09-21T09:15:56.725Z,98963.22
2022-09-21T09:18:40.208Z,98960.78
2022-09-21T09:21:25.151Z,98964.50
2022-09-21T09:24:04.112Z,98961.44
2022-09-21T09:26:43.354Z,98957.91
2022-09-21T09:29:20.653Z,98970.09
2022-09-21T09:31:51.308Z,98960.28
2022-09-21T09:34:26.028Z,98963.69
2022-09-21T09:37:00.485Z,98962.09
2022-09-21T09:39:31.906Z,98956.84
2022-09-21T09:42:38.040Z,98955.00
2022-09-21T09:45:26.589Z,98955.56
2022-09-21T09:48:10.818Z,98961.53
2022-09-21T09:50:43.033Z,98943.94
2022-09-21T09:53:16.211Z,98945.84
2022-09-21T09:55:49.059Z,98941.41
2022-09-21T09:58:24.544Z,98939.69
2022-09-21T10:00:57.673Z,98927.72
2022-09-21T10:03:29.430Z,98914.56
2022-09-21T10:05:58.882Z,98930.34
2022-09-21T10:08:44.358Z,98918.94
2022-09-21T10:11:15.501Z,98923.38
2022-09-21T10:13:49.423Z,98921.53
2022-09-21T10:16:23.351Z,98931.69
2022-09-21T10:18:56.521Z,98927.69
2022-09-21T10:21:29.617Z,98920.94
2022-09-21T10:24:01.921Z,98918.88
2022-09-21T10:26:35.900Z,98923.06
2022-09-21T10:29:22.625Z,98909.41
2022-09-21T10:31:59.539Z,98907.50
2022-09-21T10:34:31.432Z,98914.09
2022-09-21T10:37:07.050Z,98908.78
2022-09-21T10:39:38.676Z,98900.22
2022-09-21T10:42:14.936Z,98902.78
2022-09-21T10:44:47.980Z,98909.56
2022-09-21T10:47:22.710Z,98906.72
2022-09-21T10:49:55.302Z,98915.38
2022-09-21T10:52:34.177Z,98927.75
2022-09-21T10:55:06.286Z,98913.72
2022-09-21T10:57:36.061Z,98925.09
2022-09-21T11:00:35.453Z,98918.38
2022-09-21T11:03:34.189Z,98922.25
2022-09-21T11:06:10.042Z,98921.34
2022-09-21T11:08:48.219Z,98921.03
2022-09-21T11:11:41.184Z,98926.03
2022-09-21T11:14:25.718Z,98928.13
2022-09-21T11:17:01.259Z,98921.34
2022-09-21T11:19:36.483Z,98923.53
2022-09-21T11:22:13.722Z,98922.28
2022-09-21T11:25:01.197Z,98915.28
2022-09-21T11:27:36.010Z,98920.50
2022-09-21T11:30:11.717Z,98913.59
2022-09-21T11:33:11.492Z,98916.09
2022-09-21T11:36:03.469Z,98912.28
2022-09-21T11:38:46.903Z,98909.22
2022-09-21T11:41:34.083Z,98915.56
2022-09-21T11:44:40.994Z,98916.47
2022-09-21T11:47:32.360Z,98925.00
2022-09-21T11:50:31.740Z,98913.06
2022-09-21T11:53:20.405Z,98902.66
2022-09-21T11:56:19.967Z,98916.69
2022-09-21T11:59:00.776Z,98910.44
2022-09-21T12:01:50.535Z,98912.09
2022-09-21T12:04:37.767Z,98901.81
2022-09-21T12:07:31.107Z,98906.50
2022-09-21T12:10:33.284Z,98904.69
2022-09-21T12:13:07.620Z,98893.38
2022-09-21T12:15:47.171Z,98891.97
2022-09-21T12:18:25.978Z,98894.66
2022-09-21T12:21:04.274Z,98896.47
2022-09-21T12:23:43.744Z,98905.97
2022-09-21T12:26:19.580Z,98897.75
2022-09-21T12:28:54.937Z,98901.81
2022-09-21T12:31:30.956Z,98899.16
2022-09-21T12:34:06.612Z,98904.50
2022-09-21T12:36:41.982Z,98905.16
2022-09-21T12:39:21.961Z,98901.34
2022-09-21T12:41:59.225Z,98895.78
2022-09-21T12:44:51.961Z,98900.03
2022-09-21T12:47:29.060Z,98891.47
2022-09-21T12:50:06.604Z,98895.84
2022-09-21T12:52:37.611Z,98894.88
2022-09-21T12:55:30.801Z,98892.72
2022-09-21T12:58:15.478Z,98899.09
2022-09-21T13:00:59.034Z,98893.66
2022-09-21T13:03:36.518Z,98887.91
2022-09-21T13:06:32.180Z,98893.59
2022-09-21T13:09:05.226Z,98880.00
2022-09-21T13:11:54.595Z,98883.97
2022-09-21T13:14:27.876Z,98884.19
2022-09-21T13:17:01.057Z,98880.69
2022-09-21T13:19:33.841Z,98879.69
2022-09-21T13:22:16.115Z,98874.25
2022-09-21T13:24:48.500Z,98876.84
2022-09-21T13:27:19.049Z,98867.66
2022-09-21T13:30:30.007Z,98866.19
2022-09-21T13:32:59.564Z,98860.22
2022-09-21T13:36:11.614Z,98855.09
2022-09-21T13:39:14.903Z,98855.00
2022-09-21T13:42:02.269Z,98850.13
2022-09-21T13:44:46.383Z,98846.09
2022-09-21T13:47:15.535Z,98844.47
2022-09-21T13:49:54.973Z,98845.28
2022-09-21T13:52:40.425Z,98842.50
2022-09-21T13:55:28.581Z,98843.19
2022-09-21T13:58:02.134Z,98847.59
2022-09-21T14:00:41.268Z,98843.78
2022-09-21T14:03:25.623Z,98849.91
2022-09-21T14:06:01.079Z,98852.97
2022-09-21T14:08:34.406Z,98852.19
2022-09-21T14:11:08.091Z,98844.25
2022-09-21T14:13:42.265Z,98849.00
2022-09-21T14:16:55.912Z,98847.34
2022-09-21T14:20:00.995Z,98847.56
2022-09-21T14:22:43.706Z,98851.94
2022-09-21T14:25:51.821Z,98858.31
2022-09-21T14:28:36.518Z,98843.75
2022-09-21T14:31:17.475Z,98847.22
2022-09-21T14:33:55.073Z,98841.22
2022-09-21T14:36:31.351Z,98836.13
2022-09-21T14:39:05.516Z,98826.97
2022-09-21T14:41:41.546Z,98820.88
2022-09-21T14:44:21.087Z,98818.03
2022-09-21T14:47:37.059Z,98821.44
2022-09-21T14:50:25.265Z,98815.50
2022-09-21T14:53:39.330Z,98818.19
2022-09-21T14:56:34.388Z,98821.94
2022-09-21T14:59:39.777Z,98820.34
2022-09-21T15:02:21.056Z,98822.84
2022-09-21T15:05:13.498Z,98823.19
2022-09-21T15:08:12.512Z,98824.97
2022-09-21T15:10:58.628Z,98828.44
2022-09-21T15:13:58.444Z,98830.81
2022-09-21T15:16:36.899Z,98833.72
2022-09-21T15:19:25.672Z,98829.91
2022-09-21T15:21:56.799Z,98831.22
2022-09-21T15:24:34.240Z,98826.72
2022-09-21T15:27:10.483Z,98825.91
2022-09-21T15:29:41.345Z,98833.22
2022-09-21T15:32:34.192Z,98824.84
2022-09-21T15:35:07.548Z,98817.22
2022-09-21T15:37:39.881Z,98822.38
2022-09-21T15:40:20.674Z,98817.38
2022-09-21T15:43:06.598Z,98823.81
2022-09-21T15:45:52.020Z,98819.81
2022-09-21T15:48:21.903Z,98817.47
2022-09-21T15:51:07.682Z,98819.91
2022-09-21T15:53:45.744Z,98820.38
2022-09-21T15:56:26.379Z,98828.22
2022-09-21T15:59:09.090Z,98836.03
2022-09-21T16:01:43.093Z,98830.81
2022-09-21T16:04:21.506Z,98835.34
2022-09-21T16:07:03.575Z,98828.69
2022-09-21T16:09:49.909Z,98839.44
2022-09-21T16:12:43.822Z,98836.97
2022-09-21T16:15:25.190Z,98836.25
2022-09-21T16:18:04.042Z,98840.16
2022-09-21T16:20:44.739Z,98848.66
2022-09-21T16:23:18.368Z,98847.00
2022-09-21T16:25:57.358Z,98839.56
2022-09-21T16:28:43.064Z,98850.00
2022-09-21T16:31:39.187Z,98857.41
2022-09-21T16:34:25.569Z,98858.91
2022-09-21T16:36:58.496Z,98857.91
2022-09-21T16:39:32.175Z,98855.41
2022-09-21T16:42:05.862Z,98849.88
2022-09-21T16:44:45.166Z,98855.00
2022-09-21T16:47:17.752Z,98855.13
2022-09-21T16:49:49.773Z,98864.00
2022-09-21T16:52:23.362Z,98860.88
2022-09-21T16:54:52.936Z,98860.16
2022-09-21T16:57:25.177Z,98860.31
2022-09-21T16:59:59.559Z,98860.47
2022-09-21T17:02:28.881Z,98877.53
2022-09-21T17:05:00.787Z,98866.38
2022-09-21T17:07:36.498Z,98873.69
2022-09-21T17:10:14.136Z,98876.13
2022-09-21T17:12:44.426Z,98873.81
2022-09-21T17:15:15.771Z,98883.53
2022-09-21T17:17:44.888Z,98876.34
2022-09-21T17:20:20.366Z,98884.47
2022-09-21T17:22:52.642Z,98893.34
2022-09-21T17:25:23.953Z,98889.34
2022-09-21T17:27:53.398Z,98893.34
2022-09-21T17:30:29.929Z,98898.19
2022-09-21T17:33:05.771Z,98893.34
2022-09-21T17:35:56.539Z,98896.56
2022-09-21T17:38:49.182Z,98900.97
2022-09-21T17:41:35.645Z,98905.38
2022-09-21T17:44:20.266Z,98911.00
2022-09-21T17:47:02.946Z,98910.22
2022-09-21T17:49:35.384Z,98906.97
2022-09-21T17:52:28.484Z,98914.22
2022-09-21T17:55:01.266Z,98905.41
2022-09-21T17:57:48.201Z,98912.63
2022-09-21T18:00:22.652Z,98910.13
2022-09-21T18:02:55.552Z,98916.84
2022-09-21T18:05:27.952Z,98907.56
2022-09-21T18:08:00.266Z,98910.69
2022-09-21T18:10:35.326Z,98916.66
2022-09-21T18:13:20.875Z,98916.97
2022-09-21T18:16:10.505Z,98916.09
2022-09-21T18:18:47.357Z,98922.47
2022-09-21T18:21:22.256Z,98918.81
2022-09-21T18:24:15.081Z,98920.78
2022-09-21T18:26:45.543Z,98923.94
2022-09-21T18:29:39.500Z,98928.59
2022-09-21T18:32:32.514Z,98932.31
2022-09-21T18:35:31.921Z,98930.03
2022-09-21T18:38:22.074Z,98939.69
2022-09-21T18:41:14.236Z,98940.50
2022-09-21T18:44:08.458Z,98932.72
2022-09-21T18:46:50.836Z,98941.91
2022-09-21T18:49:42.091Z,98947.94
2022-09-21T18:52:33.939Z,98941.78
2022-09-21T18:55:15.396Z,98944.16
2022-09-21T18:57:45.605Z,98947.09
2022-09-21T19:00:18.776Z,98945.69
2022-09-21T19:03:12.329Z,98937.47
2022-09-21T19:05:43.081Z,98947.81
2022-09-21T19:08:23.568Z,98951.81
2022-09-21T19:11:05.498Z,98953.59
2022-09-21T19:13:49.690Z,98948.44
2022-09-21T19:16:32.378Z,98954.00
2022-09-21T19:19:22.587Z,98950.41
2022-09-21T19:22:02.513Z,98959.13
2022-09-21T19:24:46.578Z,98954.28
2022-09-21T19:27:27.727Z,98953.84
2022-09-21T19:30:13.158Z,98948.84
2022-09-21T19:32:47.293Z,98945.81
2022-09-21T19:35:26.966Z,98951.66
2022-09-21T19:38:01.554Z,98957.00
2022-09-21T19:40:34.794Z,98955.81
2022-09-21T19:43:21.958Z,98947.66
2022-09-21T19:46:12.146Z,98946.44
2022-09-21T19:48:44.908Z,98945.69
2022-09-21T19:51:20.487Z,98937.50
2022-09-21T19:54:14.719Z,98954.44
2022-09-21T19:57:05.981Z,98948.53
2022-09-21T19:59:45.526Z,98960.78
2022-09-21T20:02:19.977Z,98947.00
2022-09-21T20:04:56.023Z,98948.91
2022-09-21T20:07:44.472Z,98955.25
2022-09-21T20:10:38.682Z,98958.78
2022-09-21T20:13:22.134Z,98952.81
2022-09-21T20:15:57.680Z,98949.41
2022-09-21T20:18:50.260Z,98951.28
2022-09-21T20:21:23.492Z,98943.34
2022-09-21T20:24:02.108Z,98951.72
2022-09-21T20:26:32.623Z,98950.03
2022-09-21T20:29:12.539Z,98952.09
2022-09-21T20:31:50.762Z,98954.31
2022-09-21T20:34:20.642Z,98958.53
2022-09-21T20:36:50.081Z,98959.22
2022-09-21T20:39:19.384Z,98960.78
2022-09-21T20:41:49.015Z,98959.78
2022-09-21T20:44:22.567Z,98964.69
2022-09-21T20:46:52.107Z,98962.78
2022-09-21T20:49:21.286Z,98961.31
2022-09-21T20:51:50.506Z,98972.88
2022-09-21T20:54:19.733Z,98968.97
2022-09-21T20:56:49.124Z,98962.41
2022-09-21T20:59:21.110Z,98969.44
2022-09-21T21:01:52.799Z,98969.38
2022-09-21T21:04:22.914Z,98972.53
2022-09-21T21:06:52.474Z,98971.13
2022-09-21T21:09:22.916Z,98980.38
2022-09-21T21:11:52.693Z,98978.19
2022-09-21T21:14:23.837Z,98977.09
2022-09-21T21:16:53.153Z,98978.34
2022-09-21T21:19:22.422Z,98978.19
2022-09-21T21:21:51.649Z,98980.38
2022-09-21T21:24:38.242Z,98976.66
2022-09-21T21:27:30.362Z,98972.91
2022-09-21T21:30:02.212Z,98974.66
2022-09-21T21:32:33.284Z,98970.44
2022-09-21T21:35:03.917Z,98972.69
2022-09-21T21:37:33.224Z,98976.28
2022-09-21T21:40:04.003Z,98967.59
2022-09-21T21:42:33.307Z,98970.69
2022-09-21T21:45:04.187Z,98962.47
2022-09-21T21:47:41.365Z,98967.91
2022-09-21T21:50:35.990Z,98960.19
2022-09-21T21:53:05.192Z,98958.66
2022-09-21T21:55:34.314Z,98950.56
2022-09-21T21:58:03.589Z,98955.69
2022-09-21T22:00:34.306Z,98956.41
2022-09-21T22:03:05.066Z,98947.88
2022-09-21T22:05:36.114Z,98952.13
2022-09-21T22:08:06.971Z,98956.09
2022-09-21T22:10:36.181Z,98945.94
2022-09-21T22:13:08.422Z,98959.75
2022-09-21T22:15:39.117Z,98951.16
2022-09-21T22:18:08.383Z,98956.81
2022-09-21T22:20:37.566Z,98949.97
2022-09-21T22:23:09.212Z,98959.69
2022-09-21T22:25:39.399Z,98965.44
2022-09-21T22:28:09.179Z,98961.06
2022-09-21T22:30:48.159Z,98970.03
2022-09-21T22:33:17.933Z,98968.50
2022-09-21T22:35:51.576Z,98959.88
2022-09-21T22:38:20.785Z,98965.63
2022-09-21T22:40:49.996Z,98959.16
2022-09-21T22:43:19.340Z,98957.72
2022-09-21T22:45:50.040Z,98963.97
2022-09-21T22:48:19.717Z,98966.16
2022-09-21T22:50:48.869Z,98956.41
2022-09-21T22:53:18.022Z,98950.88
2022-09-21T22:55:47.605Z,98956.44
2022-09-21T22:58:17.514Z,98953.78
2022-09-21T23:00:49.379Z,98950.28
2022-09-21T23:03:18.923Z,98955.91
2022-09-21T23:05:57.685Z,98947.41
2022-09-21T23:08:28.352Z,98946.97
2022-09-21T23:10:57.793Z,98953.50
2022-09-21T23:13:26.935Z,98949.13
2022-09-21T23:16:03.964Z,98944.72
2022-09-21T23:18:33.401Z,98934.47
2022-09-21T23:21:32.411Z,98944.19
2022-09-21T23:24:03.660Z,98930.63
2022-09-21T23:26:34.815Z,98933.66
2022-09-21T23:29:08.950Z,98925.41
2022-09-21T23:31:44.700Z,98927.38
2022-09-21T23:34:16.037Z,98919.47
2022-09-21T23:36:46.497Z,98916.63
2022-09-21T23:39:17.093Z,98906.91
2022-09-21T23:41:46.363Z,98916.28
2022-09-21T23:44:15.561Z,98912.13
2022-09-21T23:46:46.386Z,98910.75
2022-09-21T23:49:15.693Z,98918.19
2022-09-21T23:51:44.749Z,98919.75
2022-09-21T23:54:15.234Z,98915.06
2022-09-21T23:56:45.070Z,98907.81
2022-09-21T23:59:14.252Z,98909.97
